sensor_id;sensor_type;location;lat;lon;timestamp;temperature;humidity
76102;SHT30;64830;46.910;6.354;2023-07-20T00:02:00;20.07;61.41
76102;SHT30;64830;46.910;6.354;2023-07-20T00:04:25;20.10;61.40
76102;SHT30;64830;46.910;6.354;2023-07-20T00:06:51;20.07;61.62
76102;SHT30;64830;46.910;6.354;2023-07-20T00:09:16;20.05;61.47
76102;SHT30;64830;46.910;6.354;2023-07-20T00:11:52;20.01;61.48
76102;SHT30;64830;46.910;6.354;2023-07-20T00:14:18;19.97;61.57
76102;SHT30;64830;46.910;6.354;2023-07-20T00:16:45;19.97;61.62
76102;SHT30;64830;46.910;6.354;2023-07-20T00:19:12;19.98;61.83
76102;SHT30;64830;46.910;6.354;2023-07-20T00:21:37;20.00;61.36
76102;SHT30;64830;46.910;6.354;2023-07-20T00:24:05;20.02;61.29
76102;SHT30;64830;46.910;6.354;2023-07-20T00:26:31;20.02;61.44
76102;SHT30;64830;46.910;6.354;2023-07-20T00:28:57;20.02;61.46
76102;SHT30;64830;46.910;6.354;2023-07-20T00:31:22;20.00;61.55
76102;SHT30;64830;46.910;6.354;2023-07-20T00:33:48;20.02;61.52
76102;SHT30;64830;46.910;6.354;2023-07-20T00:36:13;20.01;61.34
76102;SHT30;64830;46.910;6.354;2023-07-20T00:38:39;20.02;61.63
76102;SHT30;64830;46.910;6.354;2023-07-20T00:41:06;19.98;61.94
76102;SHT30;64830;46.910;6.354;2023-07-20T00:43:31;19.94;62.32
76102;SHT30;64830;46.910;6.354;2023-07-20T00:45:57;19.90;62.17
76102;SHT30;64830;46.910;6.354;2023-07-20T00:48:23;19.88;62.13
76102;SHT30;64830;46.910;6.354;2023-07-20T00:50:48;19.84;62.29
76102;SHT30;64830;46.910;6.354;2023-07-20T00:53:15;19.80;62.49
76102;SHT30;64830;46.910;6.354;2023-07-20T00:55:40;19.77;62.44
76102;SHT30;64830;46.910;6.354;2023-07-20T00:58:06;19.70;62.42
76102;SHT30;64830;46.910;6.354;2023-07-20T01:00:34;19.67;62.39
76102;SHT30;64830;46.910;6.354;2023-07-20T01:03:00;19.69;62.66
76102;SHT30;64830;46.910;6.354;2023-07-20T01:05:41;19.65;62.84
76102;SHT30;64830;46.910;6.354;2023-07-20T01:08:14;19.67;63.03
76102;SHT30;64830;46.910;6.354;2023-07-20T01:10:48;19.65;63.00
76102;SHT30;64830;46.910;6.354;2023-07-20T01:13:17;19.65;63.15
76102;SHT30;64830;46.910;6.354;2023-07-20T01:15:49;19.66;63.10
76102;SHT30;64830;46.910;6.354;2023-07-20T01:18:15;19.62;63.12
76102;SHT30;64830;46.910;6.354;2023-07-20T01:20:40;19.60;62.95
76102;SHT30;64830;46.910;6.354;2023-07-20T01:25:57;19.62;62.89
76102;SHT30;64830;46.910;6.354;2023-07-20T01:31:34;19.49;63.08
76102;SHT30;64830;46.910;6.354;2023-07-20T01:34:02;19.49;63.01
76102;SHT30;64830;46.910;6.354;2023-07-20T01:36:30;19.49;63.09
76102;SHT30;64830;46.910;6.354;2023-07-20T01:38:58;19.42;63.12
76102;SHT30;64830;46.910;6.354;2023-07-20T01:41:24;19.36;63.33
76102;SHT30;64830;46.910;6.354;2023-07-20T01:43:50;19.29;63.32
76102;SHT30;64830;46.910;6.354;2023-07-20T01:46:15;19.28;63.54
76102;SHT30;64830;46.910;6.354;2023-07-20T01:48:40;19.19;63.91
76102;SHT30;64830;46.910;6.354;2023-07-20T01:51:06;19.11;63.75
76102;SHT30;64830;46.910;6.354;2023-07-20T01:53:31;19.04;63.85
76102;SHT30;64830;46.910;6.354;2023-07-20T01:55:57;19.04;63.96
76102;SHT30;64830;46.910;6.354;2023-07-20T01:58:22;19.00;64.03
76102;SHT30;64830;46.910;6.354;2023-07-20T02:00:48;18.95;64.37
76102;SHT30;64830;46.910;6.354;2023-07-20T02:03:14;18.87;64.27
76102;SHT30;64830;46.910;6.354;2023-07-20T02:05:42;18.91;64.71
76102;SHT30;64830;46.910;6.354;2023-07-20T02:08:07;18.87;64.81
76102;SHT30;64830;46.910;6.354;2023-07-20T02:10:33;18.84;64.90
76102;SHT30;64830;46.910;6.354;2023-07-20T02:12:58;18.81;64.85
76102;SHT30;64830;46.910;6.354;2023-07-20T02:15:23;18.81;64.84
76102;SHT30;64830;46.910;6.354;2023-07-20T02:17:49;18.69;64.94
76102;SHT30;64830;46.910;6.354;2023-07-20T02:20:14;18.56;65.14
76102;SHT30;64830;46.910;6.354;2023-07-20T02:22:40;18.50;65.10
76102;SHT30;64830;46.910;6.354;2023-07-20T02:25:06;18.42;65.38
76102;SHT30;64830;46.910;6.354;2023-07-20T02:27:33;18.38;65.66
76102;SHT30;64830;46.910;6.354;2023-07-20T02:29:58;18.35;65.71
76102;SHT30;64830;46.910;6.354;2023-07-20T02:32:24;18.36;65.79
76102;SHT30;64830;46.910;6.354;2023-07-20T02:34:50;18.31;65.85
76102;SHT30;64830;46.910;6.354;2023-07-20T02:37:16;18.28;66.24
76102;SHT30;64830;46.910;6.354;2023-07-20T02:39:42;18.24;66.04
76102;SHT30;64830;46.910;6.354;2023-07-20T02:42:07;18.21;65.95
76102;SHT30;64830;46.910;6.354;2023-07-20T02:44:33;18.19;66.22
76102;SHT30;64830;46.910;6.354;2023-07-20T02:46:58;18.18;66.36
76102;SHT30;64830;46.910;6.354;2023-07-20T02:49:23;18.15;66.34
76102;SHT30;64830;46.910;6.354;2023-07-20T02:51:49;18.12;66.13
76102;SHT30;64830;46.910;6.354;2023-07-20T02:54:15;18.09;66.40
76102;SHT30;64830;46.910;6.354;2023-07-20T02:56:40;18.08;66.58
76102;SHT30;64830;46.910;6.354;2023-07-20T02:59:06;18.04;66.57
76102;SHT30;64830;46.910;6.354;2023-07-20T03:01:31;17.97;66.62
76102;SHT30;64830;46.910;6.354;2023-07-20T03:03:57;17.90;66.69
76102;SHT30;64830;46.910;6.354;2023-07-20T03:06:23;17.86;67.00
76102;SHT30;64830;46.910;6.354;2023-07-20T03:08:48;17.83;67.01
76102;SHT30;64830;46.910;6.354;2023-07-20T03:11:19;17.81;66.96
76102;SHT30;64830;46.910;6.354;2023-07-20T03:13:46;17.83;67.13
76102;SHT30;64830;46.910;6.354;2023-07-20T03:16:13;17.80;66.83
76102;SHT30;64830;46.910;6.354;2023-07-20T03:18:41;17.79;66.81
76102;SHT30;64830;46.910;6.354;2023-07-20T03:21:07;17.77;66.80
76102;SHT30;64830;46.910;6.354;2023-07-20T03:23:33;17.76;66.88
76102;SHT30;64830;46.910;6.354;2023-07-20T03:25:58;17.73;66.91
76102;SHT30;64830;46.910;6.354;2023-07-20T03:28:24;17.67;67.07
76102;SHT30;64830;46.910;6.354;2023-07-20T03:30:57;17.62;67.12
76102;SHT30;64830;46.910;6.354;2023-07-20T03:33:26;17.62;67.40
76102;SHT30;64830;46.910;6.354;2023-07-20T03:35:51;17.59;67.43
76102;SHT30;64830;46.910;6.354;2023-07-20T03:38:17;17.62;67.44
76102;SHT30;64830;46.910;6.354;2023-07-20T03:40:50;17.59;67.48
76102;SHT30;64830;46.910;6.354;2023-07-20T03:43:16;17.59;67.83
76102;SHT30;64830;46.910;6.354;2023-07-20T03:45:42;17.62;67.76
76102;SHT30;64830;46.910;6.354;2023-07-20T03:48:07;17.60;67.64
76102;SHT30;64830;46.910;6.354;2023-07-20T03:50:33;17.59;67.50
76102;SHT30;64830;46.910;6.354;2023-07-20T03:52:58;17.57;67.47
76102;SHT30;64830;46.910;6.354;2023-07-20T03:55:24;17.53;67.58
76102;SHT30;64830;46.910;6.354;2023-07-20T03:57:49;17.57;67.40
76102;SHT30;64830;46.910;6.354;2023-07-20T04:00:16;17.53;67.45
76102;SHT30;64830;46.910;6.354;2023-07-20T04:02:42;17.50;67.63
76102;SHT30;64830;46.910;6.354;2023-07-20T04:05:08;17.47;67.69
76102;SHT30;64830;46.910;6.354;2023-07-20T04:07:33;17.43;67.75
76102;SHT30;64830;46.910;6.354;2023-07-20T04:09:58;17.43;67.84
76102;SHT30;64830;46.910;6.354;2023-07-20T04:12:24;17.43;67.93
76102;SHT30;64830;46.910;6.354;2023-07-20T04:14:49;17.43;67.99
76102;SHT30;64830;46.910;6.354;2023-07-20T04:17:15;17.42;67.81
76102;SHT30;64830;46.910;6.354;2023-07-20T04:19:40;17.36;67.82
76102;SHT30;64830;46.910;6.354;2023-07-20T04:22:06;17.31;67.88
76102;SHT30;64830;46.910;6.354;2023-07-20T04:24:31;17.22;68.02
76102;SHT30;64830;46.910;6.354;2023-07-20T04:26:56;17.14;68.11
76102;SHT30;64830;46.910;6.354;2023-07-20T04:29:22;17.07;68.32
76102;SHT30;64830;46.910;6.354;2023-07-20T04:31:47;17.03;68.46
76102;SHT30;64830;46.910;6.354;2023-07-20T04:34:12;17.00;68.95
76102;SHT30;64830;46.910;6.354;2023-07-20T04:36:38;17.01;69.23
76102;SHT30;64830;46.910;6.354;2023-07-20T04:39:03;17.04;69.12
76102;SHT30;64830;46.910;6.354;2023-07-20T04:41:30;17.04;69.08
76102;SHT30;64830;46.910;6.354;2023-07-20T04:43:55;17.05;68.95
76102;SHT30;64830;46.910;6.354;2023-07-20T04:46:21;17.11;68.88
76102;SHT30;64830;46.910;6.354;2023-07-20T04:48:47;17.12;68.67
76102;SHT30;64830;46.910;6.354;2023-07-20T04:51:13;17.14;68.89
76102;SHT30;64830;46.910;6.354;2023-07-20T04:53:38;17.18;68.69
76102;SHT30;64830;46.910;6.354;2023-07-20T04:56:04;17.21;68.53
76102;SHT30;64830;46.910;6.354;2023-07-20T04:58:29;17.15;68.44
76102;SHT30;64830;46.910;6.354;2023-07-20T05:00:55;17.18;68.54
76102;SHT30;64830;46.910;6.354;2023-07-20T05:03:20;17.14;68.62
76102;SHT30;64830;46.910;6.354;2023-07-20T05:05:49;17.12;68.69
76102;SHT30;64830;46.910;6.354;2023-07-20T05:08:14;17.04;68.56
76102;SHT30;64830;46.910;6.354;2023-07-20T05:10:40;17.07;68.73
76102;SHT30;64830;46.910;6.354;2023-07-20T05:13:05;17.15;68.91
76102;SHT30;64830;46.910;6.354;2023-07-20T05:15:33;17.18;68.45
76102;SHT30;64830;46.910;6.354;2023-07-20T05:17:59;17.21;68.62
76102;SHT30;64830;46.910;6.354;2023-07-20T05:20:25;17.31;68.69
76102;SHT30;64830;46.910;6.354;2023-07-20T05:22:50;17.42;68.48
76102;SHT30;64830;46.910;6.354;2023-07-20T05:25:16;17.53;68.15
76102;SHT30;64830;46.910;6.354;2023-07-20T05:27:44;17.65;67.92
76102;SHT30;64830;46.910;6.354;2023-07-20T05:30:10;17.70;67.77
76102;SHT30;64830;46.910;6.354;2023-07-20T05:32:35;17.81;67.14
76102;SHT30;64830;46.910;6.354;2023-07-20T05:35:01;17.91;67.31
76102;SHT30;64830;46.910;6.354;2023-07-20T05:37:27;18.04;67.10
76102;SHT30;64830;46.910;6.354;2023-07-20T05:39:52;18.15;66.90
76102;SHT30;64830;46.910;6.354;2023-07-20T05:42:18;18.29;65.98
76102;SHT30;64830;46.910;6.354;2023-07-20T05:44:43;18.41;65.95
76102;SHT30;64830;46.910;6.354;2023-07-20T05:47:09;18.55;65.48
76102;SHT30;64830;46.910;6.354;2023-07-20T05:49:35;18.70;65.50
76102;SHT30;64830;46.910;6.354;2023-07-20T05:52:00;18.87;65.21
76102;SHT30;64830;46.910;6.354;2023-07-20T05:54:26;19.00;64.41
76102;SHT30;64830;46.910;6.354;2023-07-20T05:56:51;19.12;64.04
76102;SHT30;64830;46.910;6.354;2023-07-20T05:59:17;19.25;64.07
76102;SHT30;64830;46.910;6.354;2023-07-20T06:01:43;19.36;64.14
76102;SHT30;64830;46.910;6.354;2023-07-20T06:04:09;19.52;63.17
76102;SHT30;64830;46.910;6.354;2023-07-20T06:06:34;19.56;63.13
76102;SHT30;64830;46.910;6.354;2023-07-20T06:09:00;19.70;63.12
76102;SHT30;64830;46.910;6.354;2023-07-20T06:11:29;19.78;62.89
76102;SHT30;64830;46.910;6.354;2023-07-20T06:13:56;19.84;62.62
76102;SHT30;64830;46.910;6.354;2023-07-20T06:16:21;19.95;62.32
76102;SHT30;64830;46.910;6.354;2023-07-20T06:18:47;20.04;62.12
76102;SHT30;64830;46.910;6.354;2023-07-20T06:21:12;20.19;61.52
76102;SHT30;64830;46.910;6.354;2023-07-20T06:23:38;20.29;61.51
76102;SHT30;64830;46.910;6.354;2023-07-20T06:26:06;20.40;61.16
76102;SHT30;64830;46.910;6.354;2023-07-20T06:28:32;20.43;60.61
76102;SHT30;64830;46.910;6.354;2023-07-20T06:31:01;20.53;59.98
76102;SHT30;64830;46.910;6.354;2023-07-20T06:33:33;20.60;59.72
76102;SHT30;64830;46.910;6.354;2023-07-20T06:36:00;20.69;59.37
76102;SHT30;64830;46.910;6.354;2023-07-20T06:38:25;20.70;59.45
76102;SHT30;64830;46.910;6.354;2023-07-20T06:40:51;20.74;59.62
76102;SHT30;64830;46.910;6.354;2023-07-20T06:43:17;20.76;58.60
76102;SHT30;64830;46.910;6.354;2023-07-20T06:45:42;20.74;59.03
76102;SHT30;64830;46.910;6.354;2023-07-20T06:48:08;20.79;59.06
76102;SHT30;64830;46.910;6.354;2023-07-20T06:50:34;20.85;58.76
76102;SHT30;64830;46.910;6.354;2023-07-20T06:53:00;20.80;58.65
76102;SHT30;64830;46.910;6.354;2023-07-20T06:55:26;20.87;58.50
76102;SHT30;64830;46.910;6.354;2023-07-20T06:57:51;20.95;58.51
76102;SHT30;64830;46.910;6.354;2023-07-20T07:00:17;21.08;58.79
76102;SHT30;64830;46.910;6.354;2023-07-20T07:02:43;21.24;58.64
76102;SHT30;64830;46.910;6.354;2023-07-20T07:05:08;21.36;58.33
76102;SHT30;64830;46.910;6.354;2023-07-20T07:07:34;21.49;58.10
76102;SHT30;64830;46.910;6.354;2023-07-20T07:10:00;21.54;57.51
76102;SHT30;64830;46.910;6.354;2023-07-20T07:12:25;21.62;57.11
76102;SHT30;64830;46.910;6.354;2023-07-20T07:14:51;21.66;56.26
76102;SHT30;64830;46.910;6.354;2023-07-20T07:17:16;21.69;55.78
76102;SHT30;64830;46.910;6.354;2023-07-20T07:19:41;21.64;55.70
76102;SHT30;64830;46.910;6.354;2023-07-20T07:22:07;21.53;55.87
76102;SHT30;64830;46.910;6.354;2023-07-20T07:24:32;21.50;55.39
76102;SHT30;64830;46.910;6.354;2023-07-20T07:27:01;21.52;56.04
76102;SHT30;64830;46.910;6.354;2023-07-20T07:29:27;21.59;55.77
76102;SHT30;64830;46.910;6.354;2023-07-20T07:31:53;21.66;55.84
76102;SHT30;64830;46.910;6.354;2023-07-20T07:34:18;21.70;56.05
76102;SHT30;64830;46.910;6.354;2023-07-20T07:36:44;21.80;55.58
76102;SHT30;64830;46.910;6.354;2023-07-20T07:39:09;21.83;55.83
76102;SHT30;64830;46.910;6.354;2023-07-20T07:41:35;21.87;55.69
76102;SHT30;64830;46.910;6.354;2023-07-20T07:44:00;21.97;55.60
76102;SHT30;64830;46.910;6.354;2023-07-20T07:46:26;22.05;55.33
76102;SHT30;64830;46.910;6.354;2023-07-20T07:48:51;22.14;54.72
76102;SHT30;64830;46.910;6.354;2023-07-20T07:51:17;22.14;54.55
76102;SHT30;64830;46.910;6.354;2023-07-20T07:53:42;22.15;54.68
76102;SHT30;64830;46.910;6.354;2023-07-20T07:56:08;22.24;54.48
76102;SHT30;64830;46.910;6.354;2023-07-20T07:58:34;22.42;54.28
76102;SHT30;64830;46.910;6.354;2023-07-20T08:00:59;22.50;53.22
76102;SHT30;64830;46.910;6.354;2023-07-20T08:03:25;22.43;52.22
76102;SHT30;64830;46.910;6.354;2023-07-20T08:05:53;22.26;52.21
76102;SHT30;64830;46.910;6.354;2023-07-20T08:08:19;22.22;53.36
76102;SHT30;64830;46.910;6.354;2023-07-20T08:10:44;22.28;53.56
76102;SHT30;64830;46.910;6.354;2023-07-20T08:13:10;22.38;53.22
76102;SHT30;64830;46.910;6.354;2023-07-20T08:15:35;22.41;52.33
76102;SHT30;64830;46.910;6.354;2023-07-20T08:18:01;22.43;52.96
76102;SHT30;64830;46.910;6.354;2023-07-20T08:20:26;22.52;53.05
76102;SHT30;64830;46.910;6.354;2023-07-20T08:22:55;22.60;52.89
76102;SHT30;64830;46.910;6.354;2023-07-20T08:25:21;22.67;52.58
76102;SHT30;64830;46.910;6.354;2023-07-20T08:27:47;22.81;52.18
76102;SHT30;64830;46.910;6.354;2023-07-20T08:30:13;22.84;52.01
76102;SHT30;64830;46.910;6.354;2023-07-20T08:32:38;22.90;51.88
76102;SHT30;64830;46.910;6.354;2023-07-20T08:35:05;22.94;51.44
76102;SHT30;64830;46.910;6.354;2023-07-20T08:37:33;22.90;51.72
76102;SHT30;64830;46.910;6.354;2023-07-20T08:39:58;22.84;51.84
76102;SHT30;64830;46.910;6.354;2023-07-20T08:42:24;22.84;51.57
76102;SHT30;64830;46.910;6.354;2023-07-20T08:44:52;22.71;51.82
76102;SHT30;64830;46.910;6.354;2023-07-20T08:47:18;22.64;51.58
76102;SHT30;64830;46.910;6.354;2023-07-20T08:49:48;22.71;52.44
76102;SHT30;64830;46.910;6.354;2023-07-20T08:52:14;22.80;51.48
76102;SHT30;64830;46.910;6.354;2023-07-20T08:54:39;22.88;49.94
76102;SHT30;64830;46.910;6.354;2023-07-20T08:57:05;22.86;49.21
76102;SHT30;64830;46.910;6.354;2023-07-20T08:59:31;22.80;49.77
76102;SHT30;64830;46.910;6.354;2023-07-20T09:01:58;22.83;50.13
76102;SHT30;64830;46.910;6.354;2023-07-20T09:04:24;22.95;49.34
76102;SHT30;64830;46.910;6.354;2023-07-20T09:06:50;23.08;49.12
76102;SHT30;64830;46.910;6.354;2023-07-20T09:09:16;23.10;49.59
76102;SHT30;64830;46.910;6.354;2023-07-20T09:11:42;23.22;50.02
76102;SHT30;64830;46.910;6.354;2023-07-20T09:14:09;23.23;49.05
76102;SHT30;64830;46.910;6.354;2023-07-20T09:16:49;23.29;49.98
76102;SHT30;64830;46.910;6.354;2023-07-20T09:19:16;23.39;48.70
76102;SHT30;64830;46.910;6.354;2023-07-20T09:21:44;23.43;48.78
76102;SHT30;64830;46.910;6.354;2023-07-20T09:24:10;23.48;48.14
76102;SHT30;64830;46.910;6.354;2023-07-20T09:26:41;23.49;47.56
76102;SHT30;64830;46.910;6.354;2023-07-20T09:29:07;23.52;47.81
76102;SHT30;64830;46.910;6.354;2023-07-20T09:31:34;23.48;48.06
76102;SHT30;64830;46.910;6.354;2023-07-20T09:33:59;23.63;48.59
76102;SHT30;64830;46.910;6.354;2023-07-20T09:36:27;23.77;47.97
76102;SHT30;64830;46.910;6.354;2023-07-20T09:38:52;23.87;46.26
76102;SHT30;64830;46.910;6.354;2023-07-20T09:41:18;23.96;46.22
76102;SHT30;64830;46.910;6.354;2023-07-20T09:43:45;23.94;45.71
76102;SHT30;64830;46.910;6.354;2023-07-20T09:46:10;23.94;45.29
76102;SHT30;64830;46.910;6.354;2023-07-20T09:48:36;23.94;44.51
76102;SHT30;64830;46.910;6.354;2023-07-20T09:51:01;23.98;45.29
76102;SHT30;64830;46.910;6.354;2023-07-20T09:53:27;24.12;45.57
76102;SHT30;64830;46.910;6.354;2023-07-20T09:55:54;24.25;46.19
76102;SHT30;64830;46.910;6.354;2023-07-20T09:58:22;24.33;45.18
76102;SHT30;64830;46.910;6.354;2023-07-20T10:00:50;24.40;46.70
76102;SHT30;64830;46.910;6.354;2023-07-20T10:03:29;24.45;46.65
76102;SHT30;64830;46.910;6.354;2023-07-20T10:06:06;24.42;44.08
76102;SHT30;64830;46.910;6.354;2023-07-20T10:08:34;24.45;43.91
76102;SHT30;64830;46.910;6.354;2023-07-20T10:11:02;24.39;43.76
76102;SHT30;64830;46.910;6.354;2023-07-20T10:13:29;24.42;44.13
76102;SHT30;64830;46.910;6.354;2023-07-20T10:16:03;24.56;42.77
76102;SHT30;64830;46.910;6.354;2023-07-20T10:18:38;24.52;42.83
76102;SHT30;64830;46.910;6.354;2023-07-20T10:21:06;24.59;42.66
76102;SHT30;64830;46.910;6.354;2023-07-20T10:23:33;24.63;41.97
76102;SHT30;64830;46.910;6.354;2023-07-20T10:26:00;24.70;42.12
76102;SHT30;64830;46.910;6.354;2023-07-20T10:28:26;24.74;43.04
76102;SHT30;64830;46.910;6.354;2023-07-20T10:30:52;24.87;42.91
76102;SHT30;64830;46.910;6.354;2023-07-20T10:33:18;25.03;42.61
76102;SHT30;64830;46.910;6.354;2023-07-20T10:36:02;25.06;43.68
76102;SHT30;64830;46.910;6.354;2023-07-20T10:41:27;25.12;44.54
76102;SHT30;64830;46.910;6.354;2023-07-20T10:43:58;25.21;44.63
76102;SHT30;64830;46.910;6.354;2023-07-20T10:49:09;25.10;43.50
76102;SHT30;64830;46.910;6.354;2023-07-20T10:51:46;25.07;43.51
76102;SHT30;64830;46.910;6.354;2023-07-20T10:56:49;24.97;45.03
76102;SHT30;64830;46.910;6.354;2023-07-20T10:59:37;25.00;45.06
76102;SHT30;64830;46.910;6.354;2023-07-20T11:02:06;25.11;45.05
76102;SHT30;64830;46.910;6.354;2023-07-20T11:04:43;25.19;44.57
76102;SHT30;64830;46.910;6.354;2023-07-20T11:07:09;25.28;45.36
76102;SHT30;64830;46.910;6.354;2023-07-20T11:09:36;25.41;45.32
76102;SHT30;64830;46.910;6.354;2023-07-20T11:12:13;25.50;45.07
76102;SHT30;64830;46.910;6.354;2023-07-20T11:14:42;25.61;43.61
76102;SHT30;64830;46.910;6.354;2023-07-20T11:17:13;25.66;43.63
76102;SHT30;64830;46.910;6.354;2023-07-20T11:19:39;25.70;43.61
76102;SHT30;64830;46.910;6.354;2023-07-20T11:22:06;25.72;43.60
76102;SHT30;64830;46.910;6.354;2023-07-20T11:24:38;25.67;42.86
76102;SHT30;64830;46.910;6.354;2023-07-20T11:27:04;25.65;43.83
76102;SHT30;64830;46.910;6.354;2023-07-20T11:29:30;25.63;42.94
76102;SHT30;64830;46.910;6.354;2023-07-20T11:31:56;25.58;42.42
76102;SHT30;64830;46.910;6.354;2023-07-20T11:34:21;25.59;43.05
76102;SHT30;64830;46.910;6.354;2023-07-20T11:36:51;25.63;42.90
76102;SHT30;64830;46.910;6.354;2023-07-20T11:39:18;25.61;42.69
76102;SHT30;64830;46.910;6.354;2023-07-20T11:41:48;25.56;42.17
76102;SHT30;64830;46.910;6.354;2023-07-20T11:44:16;25.53;42.88
76102;SHT30;64830;46.910;6.354;2023-07-20T11:46:42;25.65;43.28
76102;SHT30;64830;46.910;6.354;2023-07-20T11:49:08;25.73;43.15
76102;SHT30;64830;46.910;6.354;2023-07-20T11:51:34;25.74;42.88
76102;SHT30;64830;46.910;6.354;2023-07-20T11:54:01;25.76;43.42
76102;SHT30;64830;46.910;6.354;2023-07-20T11:56:27;25.83;42.60
76102;SHT30;64830;46.910;6.354;2023-07-20T11:59:00;25.81;43.53
76102;SHT30;64830;46.910;6.354;2023-07-20T12:01:30;25.84;42.98
76102;SHT30;64830;46.910;6.354;2023-07-20T12:04:00;25.86;43.37
76102;SHT30;64830;46.910;6.354;2023-07-20T12:06:30;25.94;43.29
76102;SHT30;64830;46.910;6.354;2023-07-20T12:08:59;26.05;43.44
76102;SHT30;64830;46.910;6.354;2023-07-20T12:11:38;26.11;42.84
76102;SHT30;64830;46.910;6.354;2023-07-20T12:14:08;26.11;42.73
76102;SHT30;64830;46.910;6.354;2023-07-20T12:16:35;26.09;42.40
76102;SHT30;64830;46.910;6.354;2023-07-20T12:19:01;26.11;42.68
76102;SHT30;64830;46.910;6.354;2023-07-20T12:21:28;26.15;43.13
76102;SHT30;64830;46.910;6.354;2023-07-20T12:23:56;26.21;44.33
76102;SHT30;64830;46.910;6.354;2023-07-20T12:26:22;26.34;42.98
76102;SHT30;64830;46.910;6.354;2023-07-20T12:28:49;26.43;42.53
76102;SHT30;64830;46.910;6.354;2023-07-20T12:31:15;26.48;42.90
76102;SHT30;64830;46.910;6.354;2023-07-20T12:33:41;26.56;42.12
76102;SHT30;64830;46.910;6.354;2023-07-20T12:36:07;26.51;42.95
76102;SHT30;64830;46.910;6.354;2023-07-20T12:38:33;26.51;42.15
76102;SHT30;64830;46.910;6.354;2023-07-20T12:41:00;26.51;42.50
76102;SHT30;64830;46.910;6.354;2023-07-20T12:43:26;26.46;42.23
76102;SHT30;64830;46.910;6.354;2023-07-20T12:45:52;26.51;42.25
76102;SHT30;64830;46.910;6.354;2023-07-20T12:48:17;26.48;42.25
76102;SHT30;64830;46.910;6.354;2023-07-20T12:50:43;26.49;41.47
76102;SHT30;64830;46.910;6.354;2023-07-20T12:53:08;26.43;42.31
76102;SHT30;64830;46.910;6.354;2023-07-20T12:55:33;26.42;41.85
76102;SHT30;64830;46.910;6.354;2023-07-20T12:57:59;26.41;42.35
76102;SHT30;64830;46.910;6.354;2023-07-20T13:00:24;26.39;42.12
76102;SHT30;64830;46.910;6.354;2023-07-20T13:02:51;26.42;42.49
76102;SHT30;64830;46.910;6.354;2023-07-20T13:05:16;26.41;42.40
76102;SHT30;64830;46.910;6.354;2023-07-20T13:07:42;26.51;42.66
76102;SHT30;64830;46.910;6.354;2023-07-20T13:10:09;26.53;42.20
76102;SHT30;64830;46.910;6.354;2023-07-20T13:12:35;26.62;42.15
76102;SHT30;64830;46.910;6.354;2023-07-20T13:15:02;26.52;41.96
76102;SHT30;64830;46.910;6.354;2023-07-20T13:17:31;26.52;41.98
76102;SHT30;64830;46.910;6.354;2023-07-20T13:19:57;26.53;42.61
76102;SHT30;64830;46.910;6.354;2023-07-20T13:22:22;26.55;41.92
76102;SHT30;64830;46.910;6.354;2023-07-20T13:24:48;26.63;41.97
76102;SHT30;64830;46.910;6.354;2023-07-20T13:27:16;26.70;41.89
76102;SHT30;64830;46.910;6.354;2023-07-20T13:29:41;26.69;41.78
76102;SHT30;64830;46.910;6.354;2023-07-20T13:32:07;26.70;42.05
76102;SHT30;64830;46.910;6.354;2023-07-20T13:34:33;26.68;42.19
76102;SHT30;64830;46.910;6.354;2023-07-20T13:36:59;26.76;41.98
76102;SHT30;64830;46.910;6.354;2023-07-20T13:39:24;26.76;42.01
76102;SHT30;64830;46.910;6.354;2023-07-20T13:41:52;26.79;42.07
76102;SHT30;64830;46.910;6.354;2023-07-20T13:44:17;26.86;41.26
76102;SHT30;64830;46.910;6.354;2023-07-20T13:46:43;26.82;41.08
76102;SHT30;64830;46.910;6.354;2023-07-20T13:49:08;26.83;41.42
76102;SHT30;64830;46.910;6.354;2023-07-20T13:51:34;26.88;41.59
76102;SHT30;64830;46.910;6.354;2023-07-20T13:53:59;26.98;41.31
76102;SHT30;64830;46.910;6.354;2023-07-20T13:56:26;26.98;40.74
76102;SHT30;64830;46.910;6.354;2023-07-20T13:58:52;26.93;41.13
76102;SHT30;64830;46.910;6.354;2023-07-20T14:01:17;26.83;41.23
76102;SHT30;64830;46.910;6.354;2023-07-20T14:03:43;26.80;40.98
76102;SHT30;64830;46.910;6.354;2023-07-20T14:06:09;26.79;41.09
76102;SHT30;64830;46.910;6.354;2023-07-20T14:08:35;26.77;42.09
76102;SHT30;64830;46.910;6.354;2023-07-20T14:11:00;26.76;41.28
76102;SHT30;64830;46.910;6.354;2023-07-20T14:13:25;26.77;41.22
76102;SHT30;64830;46.910;6.354;2023-07-20T14:15:51;26.75;41.21
76102;SHT30;64830;46.910;6.354;2023-07-20T14:18:16;26.75;41.38
76102;SHT30;64830;46.910;6.354;2023-07-20T14:20:42;26.77;41.61
76102;SHT30;64830;46.910;6.354;2023-07-20T14:23:07;26.82;42.72
76102;SHT30;64830;46.910;6.354;2023-07-20T14:25:33;26.88;41.36
76102;SHT30;64830;46.910;6.354;2023-07-20T14:27:59;26.93;41.28
76102;SHT30;64830;46.910;6.354;2023-07-20T14:30:25;26.97;41.01
76102;SHT30;64830;46.910;6.354;2023-07-20T14:32:50;26.94;41.87
76102;SHT30;64830;46.910;6.354;2023-07-20T14:35:16;26.91;41.48
76102;SHT30;64830;46.910;6.354;2023-07-20T14:37:41;26.79;40.81
76102;SHT30;64830;46.910;6.354;2023-07-20T14:40:07;26.64;41.14
76102;SHT30;64830;46.910;6.354;2023-07-20T14:42:33;26.57;42.19
76102;SHT30;64830;46.910;6.354;2023-07-20T14:44:59;26.56;41.51
76102;SHT30;64830;46.910;6.354;2023-07-20T14:47:24;26.59;41.86
76102;SHT30;64830;46.910;6.354;2023-07-20T14:49:49;26.59;41.96
76102;SHT30;64830;46.910;6.354;2023-07-20T14:52:15;26.51;41.89
76102;SHT30;64830;46.910;6.354;2023-07-20T14:54:40;26.36;41.70
76102;SHT30;64830;46.910;6.354;2023-07-20T14:57:06;26.31;41.89
76102;SHT30;64830;46.910;6.354;2023-07-20T14:59:39;26.18;41.64
76102;SHT30;64830;46.910;6.354;2023-07-20T15:02:04;26.18;41.96
76102;SHT30;64830;46.910;6.354;2023-07-20T15:04:30;26.24;42.13
76102;SHT30;64830;46.910;6.354;2023-07-20T15:06:55;26.42;41.88
76102;SHT30;64830;46.910;6.354;2023-07-20T15:09:21;26.46;41.39
76102;SHT30;64830;46.910;6.354;2023-07-20T15:11:47;26.48;42.42
76102;SHT30;64830;46.910;6.354;2023-07-20T15:14:12;26.60;42.26
76102;SHT30;64830;46.910;6.354;2023-07-20T15:16:38;26.72;42.27
76102;SHT30;64830;46.910;6.354;2023-07-20T15:19:04;26.75;41.85
76102;SHT30;64830;46.910;6.354;2023-07-20T15:21:29;26.76;42.14
76102;SHT30;64830;46.910;6.354;2023-07-20T15:23:56;26.84;42.46
76102;SHT30;64830;46.910;6.354;2023-07-20T15:26:22;26.86;41.38
76102;SHT30;64830;46.910;6.354;2023-07-20T15:28:47;26.86;41.17
76102;SHT30;64830;46.910;6.354;2023-07-20T15:31:12;26.75;42.30
76102;SHT30;64830;46.910;6.354;2023-07-20T15:33:38;26.70;42.35
76102;SHT30;64830;46.910;6.354;2023-07-20T15:36:04;26.75;42.53
76102;SHT30;64830;46.910;6.354;2023-07-20T15:38:30;26.80;42.35
76102;SHT30;64830;46.910;6.354;2023-07-20T15:40:56;26.96;41.91